CHW2 weather

Orangeville/Headwaters Healthcare Centre Heliport
Orangeville, Ontario, Canada

Public forecast

Using degrees Celsius for public forecast. Weather courtesy of forecast.io.

METAR (pilot weather report)

Closest report is CFB Borden, 22.3 nm (41.2 km) NNE. Retrieved 2019/05/22 06:00 UTC (47 minutes ago):

CYBN 220600Z AUTO 20002KT 9SM CLR 04/02 A3021 RMK SLP235

TAF (pilot weather forecast)

Forecast is more than 12 hours old.

Closest forecast is CFB Borden, 22.3 nm (41.2 km) NNE. Retrieved 2019/05/21 00:33 UTC (1 day ago):

TAF TAF CYBN 212330Z 2200/2212 35008KT P6SM SKC BECMG 2200/2202 VRB03KT SCT240 RMK FCST BASED ON AUTO OBS. NXT FCST BY 220600Z